South Chatham, Massachusetts
Current Conditions -  °F | °C
As of 11:52 PM on Sunday 21 Dec 2014 (Local Time) from KCQX Reporting Station
Overcast Overcast  
Wind Chill: 41°   Ceiling: 2400
Heat Index: 41°   Visibility: 10mi
Dew Point: 38°   Wind: 3mph
Humidity: 89%   Direction: 10°N
Pressure: 30.33"   Gusts: NA
Location:  41.68°N, 70.02°W
Report Text: KCQX 220452Z AUTO 01003KT 10SM FEW015 BKN024 OVC060 05/03 A3033 RMK AO2 SLP271 T00500033 400560028
Loading
Personal Weather Stations






























Interactive Weather Map New forecast layout! Learn more

10-Day Weather Forecast

Advertisements
Track Severe Weather on mobile